Pagrindinis puslapis
METAR-TAF:

METAR-TAF

Oro uostai :

Kemis, Suomija

platuma: 65-47N, ilguma: 024-35E, Aukštis: 15 m

Dabartinis oras

Ataskaita buvo paskelbta 24 minutes, ne 11:50 UTC
Vėjas 11 kt iš Šiaurės
Temperatūra -16°C
Drėgmė 84%
Slėgis 996 hPa
Matomumas 10 km arba daugiau
nėra debesų žemiau 1500 m ir nėra kamuolinių lietaus debesų

METAR: EFKE 301150Z 01011KT CAVOK M16/M18 Q0996

Laikas: 14:14 (12:14 UTC)

Prognozė

Ataskaita buvo paskelbta 45 minutes, ne 11:29 UTC
Prognozė galioja nuo 30 metu 12 UTC su 30 metu 21 UTC
Vėjas 10 kt iš Šiaurės
Matomumas 10 km arba daugiau
nėra debesų žemiau 1500 m ir nėra kamuolinių lietaus debesų
Tapsmas
nuo 30 metu 17 UTC su 30 metu 19 UTC
Matomumas: 3000 m
sniegas
Laikinai
nuo 30 metu 19 UTC su 30 metu 21 UTC
Matomumas: 1400 m
Su prošvaistėmis ne aukštis 1000 ft
sniegas

TAF: EFKE 301129Z 3012/3021 01010KT CAVOK BECMG 3017/3019 3000 -SN TEMPO 3019/3021 1400 SN BKN010

Orai ataskaitas ir orų prognozės (METAR, TAF).

turimą stotys yra geltonos ir raudonos taškus žemėlapyje.

Perkelti pele per norėdami pamatyti stoties vardą.

Tada spustelėkite, norėdami matyti oro stebėjimo ir prognozės.

Norėdami pakeisti žemėlapį: spustelėkite ant žalios mygtukų su juodo kryžiaus žemyn,; žalią mygtuką su brūkšneliu, jei norite nutolinti; arba žalių rodyklių gretimoms žemėlapius.


METAR-TAF: